La Habra, CA

2:25 AM PST on December 22, 2014 (GMT -0800)
MesoWest La Habra CA US CARB | Change Station
CLOSE
Current Station
Personal Weather Station
Location: La Habra, CA
Elevation: 269 ft
Nearby Weather Stations

Elev 269 ft 33.93 °N, 117.95 °W | Updated 1 hour ago

Clear
Clear
--
Feels Like --
N
1.0
Wind Variable Wind from East

Today
High -- | Low -- °F
--% Chance of Precip.
Yesterday
High -- | Low -- °F
Precip. -- in
6:53 AM 4:47 PM
New Moon, 0% visible
Pressure 30.03 in
Visibility 3.0 miles
Clouds Clear
Dew Point Not available.
Humidity Not available.
Rainfall -9999.00 in
Snow Depth Not available.
UV 0 out of 12
Pollen 4.40 out of 12
Air Quality Not available.
Flu Activity Not available.
METAR KFUL 220953Z 09003KT 3SM BR CLR 11/09 A3003 RMK AO2 SLP167 T01110094

More Conditions Fewer Conditions

Pressure 30.03 in
Visibility 3.0 miles
Clouds Clear
Dew Point Not available.
Humidity Not available.
Rainfall -9999.00 in
Snow Depth Not available.
UV 0 out of 12
Pollen 4.40 out of 12
Air Quality Not available.
Flu Activity Not available.
METAR KFUL 220953Z 09003KT 3SM BR CLR 11/09 A3003 RMK AO2 SLP167 T01110094

More Conditions Fewer Conditions

10-Day Weather Forecast

Almanac

Astronomy

Dec. 22, 2014 Rise Set
Actual Time
Civil Twilight
Nautical Twilight
Astronomical Twilight
Moon
Length of Visible Light
Length of Day
Tomorrow will be .
, % of the Moon is Illuminated

Today's Extremes

State Highs State Lows

Community

WunderPhotos

Upload Photos

1,779,583 photos uploaded!

WunderBlogs® & News

Nearby

Air Quality

  Air Quality AQ Index Pollutant
Not available.

Snow Depth

Station Depth Elevation

Earthquake Activity

City Distance Mag. Time & Date
Minimum magnitude displayed is 2.5.

Coastal Water Temperatures

Place Temperature

Nearby Weather Stations